View Park, California
Current Conditions -  °F | °C
As of 12:47 PM on Tuesday 21 Oct 2014 (Local Time) from KCQT Reporting Station
Clear Clear  
Wind Chill: 77°   Ceiling: Unl
Heat Index: 79°   Visibility: 10mi
Dew Point: 57°   Wind: 5mph
Humidity: 50%   Direction: NA
Pressure: 29.87"   Gusts: NA
Location:  33.9885°N, 118.334°W
Report Text: KCQT 211947Z AUTO VRB04KT 10SM CLR 25/14 A2987 RMK AO2 SLP113 T02500139 $
Loading
Personal Weather Stations






























Interactive Weather Map
Tropical Storm Tracking
New forecast layout! Learn more

10-Day Weather Forecast

Advertisements
Track Severe Weather on mobile